createdAt,value
2017-04-21T00:00:12.322Z,17.52
2017-04-21T00:01:12.229Z,18.60
2017-04-21T00:02:11.518Z,19.10
2017-04-21T00:03:12.948Z,18.70
2017-04-21T00:04:12.875Z,17.87
2017-04-21T00:05:15.932Z,17.78
2017-04-21T00:06:17.844Z,16.82
2017-04-21T00:07:17.450Z,16.20
2017-04-21T00:08:17.617Z,18.48
2017-04-21T00:09:16.685Z,17.72
2017-04-21T00:10:18.221Z,17.48
2017-04-21T00:11:18.303Z,17.33
2017-04-21T00:12:20.898Z,17.95
2017-04-21T00:13:20.484Z,18.33
2017-04-21T00:14:20.372Z,18.45
2017-04-21T00:15:22.596Z,15.65
2017-04-21T00:16:21.661Z,16.03
2017-04-21T00:17:21.073Z,17.07
2017-04-21T00:18:21.362Z,17.15
2017-04-21T00:19:34.632Z,17.43
2017-04-21T00:20:34.044Z,17.40
2017-04-21T00:21:36.071Z,16.93
2017-04-21T00:22:35.719Z,17.43
2017-04-21T00:23:34.723Z,17.30
2017-04-21T00:24:34.032Z,17.62
2017-04-21T00:25:33.528Z,17.50
2017-04-21T00:26:32.465Z,17.67
2017-04-21T00:27:32.386Z,16.00
2017-04-21T00:28:30.948Z,15.18
2017-04-21T00:29:30.153Z,16.58
2017-04-21T00:30:29.146Z,16.30
2017-04-21T00:31:28.059Z,18.05
2017-04-21T00:32:27.019Z,17.58
2017-04-21T00:33:26.202Z,17.23
2017-04-21T00:34:25.147Z,19.32
2017-04-21T00:35:24.047Z,18.30
2017-04-21T00:36:22.968Z,17.88
2017-04-21T00:37:22.291Z,17.47
2017-04-21T00:38:20.812Z,16.57
2017-04-21T00:39:20.144Z,17.75
2017-04-21T00:40:19.060Z,18.40
2017-04-21T00:41:18.311Z,16.87
2017-04-21T00:42:17.223Z,17.28
2017-04-21T00:43:16.366Z,16.18
2017-04-21T00:44:15.340Z,18.43
2017-04-21T00:45:14.577Z,16.10
2017-04-21T00:46:13.695Z,17.20
2017-04-21T00:47:12.576Z,16.05
2017-04-21T00:48:11.659Z,17.42
2017-04-21T00:49:10.588Z,18.23
2017-04-21T00:50:09.502Z,17.27
2017-04-21T00:51:08.426Z,18.23
2017-04-21T00:52:07.332Z,16.70
2017-04-21T00:53:06.294Z,15.95
2017-04-21T00:54:04.844Z,18.40
2017-04-21T00:55:03.801Z,17.00
2017-04-21T00:56:02.359Z,16.97
2017-04-21T00:57:01.332Z,16.80
2017-04-21T00:57:59.843Z,15.55
2017-04-21T00:58:59.134Z,17.45
2017-04-21T00:59:57.696Z,17.27
2017-04-21T01:00:56.726Z,16.02
2017-04-21T01:01:55.612Z,16.67
2017-04-21T01:02:54.553Z,16.63
2017-04-21T01:03:53.844Z,16.75
2017-04-21T01:04:52.372Z,17.92
2017-04-21T01:05:51.769Z,16.95
2017-04-21T01:06:50.728Z,16.78
2017-04-21T01:07:49.337Z,15.58
2017-04-21T01:08:48.264Z,15.87
2017-04-21T01:09:47.159Z,16.08
2017-04-21T01:10:46.115Z,16.63
2017-04-21T01:11:45.460Z,17.17
2017-04-21T01:12:44.433Z,16.43
2017-04-21T01:13:43.455Z,17.05
2017-04-21T01:14:42.752Z,18.32
2017-04-21T01:15:41.671Z,17.35
2017-04-21T01:16:40.634Z,17.42
2017-04-21T01:17:39.579Z,18.05
2017-04-21T01:18:38.874Z,17.10
2017-04-21T01:19:38.378Z,16.98
2017-04-21T01:20:37.800Z,17.77
2017-04-21T01:21:36.755Z,18.80
2017-04-21T01:22:35.258Z,18.80
2017-04-21T01:23:34.240Z,17.95
2017-04-21T01:24:33.920Z,16.20
2017-04-21T01:25:32.844Z,17.15
2017-04-21T01:26:31.931Z,16.52
2017-04-21T01:27:30.834Z,17.22
2017-04-21T01:28:29.744Z,17.15
2017-04-21T01:29:29.023Z,16.65
2017-04-21T01:30:27.717Z,16.42
2017-04-21T01:31:26.661Z,16.75
2017-04-21T01:32:25.589Z,16.93
2017-04-21T01:33:24.489Z,17.08
2017-04-21T01:34:23.152Z,16.15
2017-04-21T01:35:22.058Z,16.50
2017-04-21T01:36:20.963Z,17.05
2017-04-21T01:37:19.896Z,15.90
2017-04-21T01:38:18.842Z,16.53
2017-04-21T01:39:17.730Z,16.28
2017-04-21T01:40:17.103Z,16.75
2017-04-21T01:41:15.864Z,16.60
2017-04-21T01:42:14.778Z,16.88
2017-04-21T01:43:13.712Z,15.60
2017-04-21T01:44:12.617Z,16.70
2017-04-21T01:45:11.636Z,15.98
2017-04-21T01:46:10.919Z,15.48
2017-04-21T01:47:09.839Z,17.72
2017-04-21T01:48:08.864Z,15.40
2017-04-21T01:49:07.412Z,15.12
2017-04-21T01:50:06.431Z,16.58
2017-04-21T01:51:04.985Z,16.98
2017-04-21T01:52:03.947Z,16.63
2017-04-21T01:53:02.872Z,16.82
2017-04-21T01:54:01.752Z,16.88
2017-04-21T01:55:00.669Z,16.63
2017-04-21T01:55:59.602Z,16.55
2017-04-21T01:56:58.544Z,16.10
2017-04-21T01:57:57.081Z,16.62
2017-04-21T01:58:56.440Z,14.75
2017-04-21T01:59:55.373Z,15.92
2017-04-21T02:00:55.121Z,16.40
2017-04-21T02:01:54.070Z,16.25
2017-04-21T02:02:52.982Z,16.63
2017-04-21T02:03:52.157Z,16.05
2017-04-21T02:04:51.099Z,16.15
2017-04-21T02:05:50.059Z,16.70
2017-04-21T02:06:49.078Z,17.08
2017-04-21T02:07:48.565Z,18.37
2017-04-21T02:08:47.064Z,17.62
2017-04-21T02:09:46.036Z,17.08
2017-04-21T02:10:44.960Z,16.62
2017-04-21T02:11:43.902Z,16.42
2017-04-21T02:12:42.818Z,17.32
2017-04-21T02:13:41.803Z,17.52
2017-04-21T02:14:40.740Z,16.68
2017-04-21T02:15:39.677Z,17.05
2017-04-21T02:16:38.665Z,16.03
2017-04-21T02:17:37.657Z,17.52
2017-04-21T02:18:37.020Z,16.83
2017-04-21T02:19:35.969Z,17.10
2017-04-21T02:20:35.361Z,16.70
2017-04-21T02:21:34.275Z,16.40
2017-04-21T02:22:32.833Z,16.10
2017-04-21T02:23:31.729Z,16.62
2017-04-21T02:24:30.742Z,15.05
2017-04-21T02:25:30.428Z,17.18
2017-04-21T02:26:28.939Z,15.90
2017-04-21T02:27:27.842Z,18.68
2017-04-21T02:28:26.798Z,16.82
2017-04-21T02:29:25.717Z,17.90
2017-04-21T02:30:24.651Z,17.05
2017-04-21T02:31:23.624Z,17.37
2017-04-21T02:32:22.627Z,17.07
2017-04-21T02:33:21.516Z,16.65
2017-04-21T02:34:20.420Z,18.48
2017-04-21T02:35:20.500Z,17.05
2017-04-21T02:36:19.321Z,16.57
2017-04-21T02:37:18.246Z,16.17
2017-04-21T02:38:17.179Z,16.60
2017-04-21T02:39:16.205Z,17.45
2017-04-21T02:40:15.522Z,18.38
2017-04-21T02:41:14.065Z,16.33
2017-04-21T02:42:12.656Z,17.35
2017-04-21T02:43:11.603Z,16.03
2017-04-21T02:44:10.509Z,16.65
2017-04-21T02:45:09.459Z,16.53
2017-04-21T02:46:08.503Z,16.25
2017-04-21T02:47:07.476Z,16.85
2017-04-21T02:48:06.284Z,17.72
2017-04-21T02:49:05.512Z,17.33
2017-04-21T02:50:04.601Z,17.40
2017-04-21T02:51:03.564Z,17.20
2017-04-21T02:52:02.875Z,15.77
2017-04-21T02:53:02.153Z,16.83
2017-04-21T02:54:01.098Z,16.25
2017-04-21T02:55:00.020Z,14.85
2017-04-21T02:55:58.551Z,16.75
2017-04-21T02:56:57.506Z,15.65
2017-04-21T02:57:56.763Z,15.78
2017-04-21T02:58:55.676Z,16.00
2017-04-21T02:59:54.607Z,16.85
2017-04-21T03:00:53.566Z,17.05
2017-04-21T03:01:52.489Z,16.25
2017-04-21T03:02:51.791Z,16.38
2017-04-21T03:03:50.801Z,17.25
2017-04-21T03:04:49.725Z,16.53
2017-04-21T03:05:48.624Z,16.65
2017-04-21T03:06:47.547Z,15.28
2017-04-21T03:07:46.447Z,16.02
2017-04-21T03:08:44.961Z,14.78
2017-04-21T03:09:44.248Z,15.33
2017-04-21T03:10:43.548Z,16.75
2017-04-21T03:11:42.830Z,15.33
2017-04-21T03:12:41.356Z,15.95
2017-04-21T03:13:40.423Z,15.18
2017-04-21T03:14:39.327Z,14.82
2017-04-21T03:15:38.524Z,15.87
2017-04-21T03:16:37.874Z,16.07
2017-04-21T03:17:36.783Z,16.13
2017-04-21T03:18:35.711Z,15.88
2017-04-21T03:19:35.004Z,14.68
2017-04-21T03:20:33.976Z,16.23
2017-04-21T03:21:33.113Z,15.90
2017-04-21T03:22:32.008Z,14.97
2017-04-21T03:23:30.940Z,15.98
2017-04-21T03:24:29.865Z,14.28
2017-04-21T03:25:28.780Z,16.12
2017-04-21T03:26:27.687Z,15.70
2017-04-21T03:27:27.163Z,15.58
2017-04-21T03:28:26.453Z,16.35
2017-04-21T03:29:25.746Z,16.43
2017-04-21T03:30:24.641Z,16.02
2017-04-21T03:31:23.947Z,15.60
2017-04-21T03:32:22.872Z,17.10
2017-04-21T03:33:22.063Z,16.52
2017-04-21T03:34:20.989Z,15.50
2017-04-21T03:35:19.884Z,16.20
2017-04-21T03:36:18.827Z,15.40
2017-04-21T03:37:18.130Z,15.83
2017-04-21T03:38:17.044Z,15.28
2017-04-21T03:39:15.976Z,15.48
2017-04-21T03:40:14.508Z,16.92
2017-04-21T03:41:13.464Z,16.18
2017-04-21T03:42:12.374Z,16.13
2017-04-21T03:43:11.279Z,16.98
2017-04-21T03:44:10.180Z,16.32
2017-04-21T03:45:09.348Z,16.20
2017-04-21T03:46:07.857Z,16.10
2017-04-21T03:47:06.763Z,15.57
2017-04-21T03:48:05.701Z,16.73
2017-04-21T03:49:04.961Z,15.77
2017-04-21T03:50:03.958Z,16.62
2017-04-21T03:51:03.248Z,15.32
2017-04-21T03:52:01.803Z,16.00
2017-04-21T03:53:00.375Z,16.87
2017-04-21T03:53:59.288Z,15.02
2017-04-21T03:54:58.239Z,15.60
2017-04-21T03:55:57.156Z,15.52
2017-04-21T03:56:56.437Z,15.25
2017-04-21T03:57:54.975Z,15.75
2017-04-21T03:58:53.905Z,15.33
2017-04-21T03:59:52.441Z,15.35
2017-04-21T04:00:51.779Z,16.88
2017-04-21T04:01:50.712Z,16.45
2017-04-21T04:02:50.424Z,16.02
2017-04-21T04:03:49.685Z,15.18
2017-04-21T04:04:48.608Z,16.65
2017-04-21T04:05:47.532Z,16.37
2017-04-21T04:06:46.456Z,15.53
2017-04-21T04:07:45.863Z,16.53
2017-04-21T04:08:45.144Z,15.88
2017-04-21T04:09:44.089Z,16.23
2017-04-21T04:10:42.644Z,15.48
2017-04-21T04:11:41.575Z,15.55
2017-04-21T04:12:40.484Z,16.08
2017-04-21T04:13:39.452Z,15.05
2017-04-21T04:14:39.040Z,14.73
2017-04-21T04:15:37.953Z,14.80
2017-04-21T04:16:39.452Z,16.08
2017-04-21T04:17:38.385Z,15.38
2017-04-21T04:18:37.307Z,16.47
2017-04-21T04:19:36.216Z,16.17
2017-04-21T04:20:35.499Z,17.05
2017-04-21T04:21:34.786Z,16.37
2017-04-21T04:22:34.159Z,15.43
2017-04-21T04:23:33.459Z,15.78
2017-04-21T04:24:32.846Z,15.18
2017-04-21T04:25:31.829Z,16.37
2017-04-21T04:26:30.627Z,17.33
2017-04-21T04:27:29.535Z,18.40
2017-04-21T04:28:28.536Z,17.50
2017-04-21T04:29:27.446Z,17.52
2017-04-21T04:30:26.360Z,16.98
2017-04-21T04:31:25.264Z,17.33
2017-04-21T04:32:24.100Z,17.70
2017-04-21T04:33:22.599Z,17.90
2017-04-21T04:34:21.525Z,18.02
2017-04-21T04:35:20.464Z,17.37
2017-04-21T04:36:19.411Z,19.05
2017-04-21T04:37:18.618Z,16.77
2017-04-21T04:38:18.151Z,16.95
2017-04-21T04:39:17.074Z,17.73
2017-04-21T04:40:16.004Z,17.82
2017-04-21T04:41:14.919Z,17.50
2017-04-21T04:42:13.954Z,17.98
2017-04-21T04:43:12.853Z,19.07
2017-04-21T04:44:11.975Z,17.78
2017-04-21T04:45:10.934Z,16.93
2017-04-21T04:46:09.889Z,17.70
2017-04-21T04:47:08.915Z,17.00
2017-04-21T04:48:07.870Z,17.03
2017-04-21T04:49:06.393Z,18.08
2017-04-21T04:50:05.707Z,19.22
2017-04-21T04:51:05.020Z,18.68
2017-04-21T04:52:03.560Z,18.45
2017-04-21T04:53:02.499Z,18.32
2017-04-21T04:54:01.421Z,16.77
2017-04-21T04:55:00.375Z,17.90
2017-04-21T04:55:59.280Z,17.65
2017-04-21T04:56:58.205Z,17.50
2017-04-21T04:57:57.089Z,17.20
2017-04-21T04:58:56.138Z,16.65
2017-04-21T04:59:54.921Z,17.68
2017-04-21T05:00:53.435Z,17.58
2017-04-21T05:01:52.603Z,17.43
2017-04-21T05:02:51.516Z,17.22
2017-04-21T05:03:50.456Z,17.37
2017-04-21T05:04:49.497Z,18.35
2017-04-21T05:05:49.692Z,17.75
2017-04-21T05:06:48.590Z,16.80
2017-04-21T05:07:49.034Z,16.58
2017-04-21T05:08:48.228Z,17.98
2017-04-21T05:09:47.225Z,17.53
2017-04-21T05:10:45.774Z,17.15
2017-04-21T05:11:44.685Z,16.40
2017-04-21T05:12:43.676Z,17.40
2017-04-21T05:13:42.912Z,17.33
2017-04-21T05:14:41.409Z,17.32
2017-04-21T05:15:40.332Z,17.38
2017-04-21T05:16:39.228Z,15.83
2017-04-21T05:17:38.204Z,17.65
2017-04-21T05:18:36.737Z,18.35
2017-04-21T05:19:36.084Z,16.75
2017-04-21T05:20:34.975Z,17.60
2017-04-21T05:21:33.905Z,17.37
2017-04-21T05:22:32.845Z,18.58
2017-04-21T05:23:32.137Z,18.12
2017-04-21T05:24:30.681Z,18.12
2017-04-21T05:25:29.991Z,17.88
2017-04-21T05:26:28.890Z,16.50
2017-04-21T05:27:27.935Z,18.12
2017-04-21T05:28:26.841Z,18.78
2017-04-21T05:29:25.779Z,17.33
2017-04-21T05:30:24.273Z,19.05
2017-04-21T05:31:23.847Z,18.50
2017-04-21T05:32:22.764Z,19.87
2017-04-21T05:33:22.092Z,20.03
2017-04-21T05:34:21.129Z,18.80
2017-04-21T05:35:20.429Z,20.17
2017-04-21T05:36:18.980Z,19.35
2017-04-21T05:37:18.190Z,19.75
2017-04-21T05:38:16.731Z,19.47
2017-04-21T05:39:15.669Z,18.30
2017-04-21T05:40:14.221Z,19.53
2017-04-21T05:41:13.188Z,20.40
2017-04-21T05:42:12.489Z,20.97
2017-04-21T05:43:11.778Z,20.67
2017-04-21T05:44:10.313Z,18.97
2017-04-21T05:45:09.280Z,20.82
2017-04-21T05:46:08.340Z,19.28
2017-04-21T05:47:06.864Z,19.52
2017-04-21T05:48:05.393Z,21.23
2017-04-21T05:49:04.968Z,21.18
2017-04-21T05:50:03.919Z,20.00
2017-04-21T05:51:02.872Z,20.07
2017-04-21T05:52:01.785Z,19.27
2017-04-21T05:53:00.736Z,20.35
2017-04-21T05:53:59.724Z,20.40
2017-04-21T05:54:59.164Z,20.60
2017-04-21T05:55:58.079Z,21.03
2017-04-21T05:56:57.001Z,20.60
2017-04-21T05:57:56.420Z,21.12
2017-04-21T05:58:55.383Z,21.75
2017-04-21T05:59:54.324Z,20.88
2017-04-21T06:00:53.570Z,21.60
2017-04-21T06:01:52.484Z,22.17
2017-04-21T06:02:51.080Z,21.58
2017-04-21T06:03:49.633Z,22.00
2017-04-21T06:04:48.568Z,21.80
2017-04-21T06:05:47.475Z,22.37
2017-04-21T06:06:46.241Z,21.18
2017-04-21T06:07:44.900Z,22.47
2017-04-21T06:08:45.153Z,21.80
2017-04-21T06:09:43.685Z,20.92
2017-04-21T06:10:42.625Z,21.72
2017-04-21T06:11:41.621Z,23.07
2017-04-21T06:12:40.824Z,22.15
2017-04-21T06:13:39.520Z,23.30
2017-04-21T06:14:38.816Z,22.18
2017-04-21T06:15:38.268Z,22.55
2017-04-21T06:16:37.180Z,23.68
2017-04-21T06:17:36.083Z,25.43
2017-04-21T06:18:35.193Z,23.05
2017-04-21T06:19:34.164Z,20.82
2017-04-21T06:20:32.729Z,23.25
2017-04-21T06:21:31.654Z,22.23
2017-04-21T06:22:31.353Z,23.30
2017-04-21T06:23:31.259Z,23.33
2017-04-21T06:24:30.584Z,24.38
2017-04-21T06:25:29.564Z,25.85
2017-04-21T06:26:28.858Z,23.90
2017-04-21T06:27:30.696Z,22.35
2017-04-21T06:28:29.708Z,23.73
2017-04-21T06:29:28.678Z,24.42
2017-04-21T06:30:28.250Z,23.23
2017-04-21T06:31:26.751Z,23.02
2017-04-21T06:32:25.736Z,23.45
2017-04-21T06:33:24.383Z,24.12
2017-04-21T06:34:23.301Z,22.63
2017-04-21T06:35:22.250Z,22.00
2017-04-21T06:36:21.471Z,23.65
2017-04-21T06:37:20.467Z,23.33
2017-04-21T06:38:22.372Z,22.10
2017-04-21T06:39:22.128Z,23.92
2017-04-21T06:40:21.239Z,23.08
2017-04-21T06:41:20.142Z,23.33
2017-04-21T06:42:19.746Z,24.15
2017-04-21T06:43:19.025Z,23.75
2017-04-21T06:44:17.914Z,25.05
2017-04-21T06:45:16.856Z,23.07
2017-04-21T06:46:15.869Z,24.60
2017-04-21T06:47:15.509Z,22.55
2017-04-21T06:48:14.363Z,23.05
2017-04-21T06:49:13.661Z,25.27
2017-04-21T06:50:12.616Z,23.73
2017-04-21T06:51:11.527Z,24.22
2017-04-21T06:52:10.482Z,24.87
2017-04-21T06:53:10.079Z,24.62
2017-04-21T06:54:23.824Z,23.23
2017-04-21T06:55:24.240Z,24.35
2017-04-21T06:56:27.224Z,25.33
2017-04-21T06:57:29.376Z,24.78
2017-04-21T06:58:28.779Z,22.97
2017-04-21T06:59:28.404Z,24.93
2017-04-21T07:00:27.307Z,25.02
2017-04-21T07:01:27.103Z,26.85
2017-04-21T07:02:27.459Z,24.37
2017-04-21T07:03:26.519Z,24.17
2017-04-21T07:04:25.469Z,25.23
2017-04-21T07:05:24.709Z,24.08
2017-04-21T07:06:23.987Z,25.32
2017-04-21T07:07:23.832Z,23.35
2017-04-21T07:08:22.766Z,24.52
2017-04-21T07:09:22.670Z,25.27
2017-04-21T07:10:21.470Z,25.67
2017-04-21T07:11:22.816Z,24.35
2017-04-21T07:12:21.421Z,24.32
2017-04-21T07:13:20.345Z,23.83
2017-04-21T07:14:19.271Z,24.75
2017-04-21T07:15:18.235Z,24.30
2017-04-21T07:16:16.783Z,24.12
2017-04-21T07:17:18.728Z,24.92
2017-04-21T07:18:17.630Z,23.50
2017-04-21T07:19:30.163Z,24.93
2017-04-21T07:20:29.199Z,24.30
2017-04-21T07:21:28.111Z,25.35
2017-04-21T07:22:27.888Z,24.53
2017-04-21T07:23:26.587Z,26.07
2017-04-21T07:24:25.506Z,24.37
2017-04-21T07:25:24.436Z,24.25
2017-04-21T07:26:23.722Z,24.77
2017-04-21T07:27:22.293Z,24.57
2017-04-21T07:28:21.895Z,24.93
2017-04-21T07:29:21.272Z,24.43
2017-04-21T07:30:21.255Z,25.02
2017-04-21T07:31:20.387Z,25.45
2017-04-21T07:32:18.942Z,23.53
2017-04-21T07:33:18.857Z,24.93
2017-04-21T07:34:18.555Z,26.53
2017-04-21T07:35:17.101Z,25.38
2017-04-21T07:36:15.622Z,25.20
2017-04-21T07:37:14.344Z,25.22
2017-04-21T07:38:13.420Z,24.62
2017-04-21T07:39:12.468Z,26.37
2017-04-21T07:40:11.841Z,24.60
2017-04-21T07:41:10.751Z,26.77
2017-04-21T07:42:09.709Z,26.87
2017-04-21T07:43:08.632Z,24.72
2017-04-21T07:44:08.191Z,23.80
2017-04-21T07:45:07.124Z,28.00
2017-04-21T07:46:06.048Z,26.87
2017-04-21T07:47:05.358Z,25.42
2017-04-21T07:48:04.252Z,26.97
2017-04-21T07:49:02.756Z,26.28
2017-04-21T07:50:01.704Z,25.65
2017-04-21T07:51:00.642Z,28.05
2017-04-21T07:51:59.623Z,26.42
2017-04-21T07:52:58.927Z,24.83
2017-04-21T07:53:57.468Z,26.33
2017-04-21T07:54:56.360Z,25.07
2017-04-21T07:55:55.261Z,25.18
2017-04-21T07:56:54.171Z,25.90
2017-04-21T07:57:53.196Z,25.85
2017-04-21T07:58:52.124Z,25.73
2017-04-21T08:00:20.797Z,27.17
2017-04-21T08:00:50.032Z,25.60
2017-04-21T08:01:48.966Z,26.63
2017-04-21T08:02:47.846Z,27.03
2017-04-21T08:03:47.123Z,29.62
2017-04-21T08:04:45.617Z,28.68
2017-04-21T08:05:44.528Z,30.87
2017-04-21T08:06:43.460Z,28.68
2017-04-21T08:07:42.408Z,28.45
2017-04-21T08:08:41.413Z,27.18
2017-04-21T08:09:40.290Z,27.65
2017-04-21T08:10:39.191Z,25.55
2017-04-21T08:11:38.103Z,28.35
2017-04-21T08:12:37.056Z,27.75
2017-04-21T08:13:35.968Z,27.23
2017-04-21T08:14:34.884Z,29.20
2017-04-21T08:15:33.674Z,28.13
2017-04-21T08:16:32.272Z,27.25
2017-04-21T08:17:30.872Z,27.08
2017-04-21T08:18:29.763Z,27.98
2017-04-21T08:19:28.760Z,26.42
2017-04-21T08:20:27.687Z,28.23
2017-04-21T08:21:26.562Z,28.88
2017-04-21T08:22:25.502Z,29.40
2017-04-21T08:23:24.411Z,27.33
2017-04-21T08:24:23.684Z,30.47
2017-04-21T08:25:22.495Z,28.75
2017-04-21T08:26:21.454Z,28.82
2017-04-21T08:27:21.360Z,29.27
2017-04-21T08:28:20.662Z,29.80
2017-04-21T08:29:19.181Z,26.60
2017-04-21T08:30:18.209Z,27.72
2017-04-21T08:31:17.117Z,28.12
2017-04-21T08:32:15.707Z,29.68
2017-04-21T08:33:14.927Z,28.62
2017-04-21T08:34:13.819Z,29.85
2017-04-21T08:35:12.766Z,29.02
2017-04-21T08:36:11.702Z,29.57
2017-04-21T08:37:10.619Z,29.35
2017-04-21T08:38:09.544Z,28.70
2017-04-21T08:39:08.850Z,29.93
2017-04-21T08:40:08.145Z,29.38
2017-04-21T08:41:06.651Z,28.60
2017-04-21T08:42:05.583Z,30.00
2017-04-21T08:43:04.518Z,29.53
2017-04-21T08:44:03.440Z,29.27
2017-04-21T08:45:03.161Z,31.20
2017-04-21T08:46:01.708Z,31.45
2017-04-21T08:47:00.592Z,29.50
2017-04-21T08:47:59.873Z,29.35
2017-04-21T08:48:58.754Z,29.98
2017-04-21T08:49:57.361Z,30.23
2017-04-21T08:50:56.334Z,31.83
2017-04-21T08:51:55.628Z,30.33
2017-04-21T08:52:54.591Z,30.35
2017-04-21T08:53:53.501Z,30.03
2017-04-21T08:54:52.430Z,30.85
2017-04-21T08:55:51.364Z,31.72
2017-04-21T08:56:50.624Z,29.13
2017-04-21T08:57:49.123Z,29.63
2017-04-21T08:58:48.259Z,29.72
2017-04-21T08:59:48.508Z,31.03
2017-04-21T09:00:47.787Z,29.88
2017-04-21T09:01:46.704Z,31.70
2017-04-21T09:02:45.966Z,31.40
2017-04-21T09:03:44.879Z,31.12
2017-04-21T09:04:43.778Z,29.27
2017-04-21T09:05:42.700Z,30.35
2017-04-21T09:06:41.614Z,36.77
2017-04-21T09:07:40.885Z,35.80
2017-04-21T09:08:40.186Z,32.25
2017-04-21T09:09:39.160Z,30.22
2017-04-21T09:10:38.088Z,31.22
2017-04-21T09:11:37.105Z,36.08
2017-04-21T09:12:36.059Z,32.35
2017-04-21T09:13:34.989Z,30.62
2017-04-21T09:14:34.017Z,30.25
2017-04-21T09:15:33.115Z,35.73
2017-04-21T09:16:32.042Z,39.97
2017-04-21T09:17:30.973Z,31.50
2017-04-21T09:18:29.863Z,42.37
2017-04-21T09:19:28.760Z,39.15
2017-04-21T09:20:28.089Z,43.58
2017-04-21T09:21:26.995Z,39.20
2017-04-21T09:22:25.905Z,34.55
2017-04-21T09:23:24.816Z,32.90
2017-04-21T09:24:23.727Z,32.78
2017-04-21T09:25:22.714Z,35.88
2017-04-21T09:26:21.927Z,32.88
2017-04-21T09:27:20.501Z,30.82
2017-04-21T09:28:19.425Z,33.07
2017-04-21T09:29:18.680Z,33.95
2017-04-21T09:30:17.616Z,31.03
2017-04-21T09:31:48.831Z,31.27
2017-04-21T09:32:15.751Z,31.08
2017-04-21T09:33:29.771Z,30.97
2017-04-21T09:34:13.632Z,33.18
2017-04-21T09:35:34.401Z,33.85
2017-04-21T09:36:11.270Z,39.83
2017-04-21T09:37:10.182Z,35.47
2017-04-21T09:38:09.452Z,32.63
2017-04-21T09:39:08.760Z,43.75
2017-04-21T09:40:07.271Z,35.45
2017-04-21T09:41:06.159Z,32.18
2017-04-21T09:42:04.663Z,30.78
2017-04-21T09:43:03.619Z,32.75
2017-04-21T09:44:02.669Z,32.62
2017-04-21T09:45:01.583Z,33.18
2017-04-21T09:46:00.493Z,33.02
2017-04-21T09:46:59.014Z,33.70
2017-04-21T09:47:57.922Z,33.50
2017-04-21T09:48:56.449Z,33.28
2017-04-21T09:49:55.703Z,34.42
2017-04-21T09:50:54.627Z,34.35
2017-04-21T09:52:52.561Z,32.58
2017-04-21T09:54:07.406Z,32.68
2017-04-21T09:54:49.785Z,32.63
2017-04-21T09:57:02.409Z,32.60
2017-04-21T09:59:48.152Z,33.82
2017-04-21T10:00:43.328Z,32.80
2017-04-21T10:00:48.186Z,30.12
2017-04-21T10:02:32.020Z,31.78
2017-04-21T10:04:21.684Z,32.90
2017-04-21T10:04:22.987Z,32.12
2017-04-21T10:05:03.878Z,30.53
2017-04-21T10:06:18.033Z,30.67
2017-04-21T10:06:47.112Z,33.18
2017-04-21T10:06:51.620Z,30.97
2017-04-21T10:07:40.484Z,33.13
2017-04-21T10:08:06.449Z,33.20
2017-04-21T10:08:26.489Z,33.05
2017-04-21T10:08:35.014Z,30.50
2017-04-21T10:09:33.958Z,32.75
2017-04-21T10:10:32.876Z,33.58
2017-04-21T10:11:31.812Z,33.12
2017-04-21T10:12:30.716Z,33.32
2017-04-21T10:13:29.890Z,33.43
2017-04-21T10:14:28.886Z,32.45
2017-04-21T10:15:28.737Z,32.88
2017-04-21T10:16:27.730Z,32.38
2017-04-21T10:17:26.669Z,33.15
2017-04-21T10:18:25.168Z,31.90
2017-04-21T10:19:24.415Z,33.05
2017-04-21T10:20:23.385Z,33.52
2017-04-21T10:21:22.401Z,33.82
2017-04-21T10:22:21.804Z,33.85
2017-04-21T10:23:20.708Z,32.87
2017-04-21T10:24:19.615Z,32.58
2017-04-21T10:25:18.867Z,34.67
2017-04-21T10:26:17.765Z,35.90
2017-04-21T10:27:16.290Z,35.62
2017-04-21T10:28:15.220Z,36.82
2017-04-21T10:29:13.717Z,38.68
2017-04-21T10:30:12.660Z,34.03
2017-04-21T10:31:12.270Z,34.90
2017-04-21T10:32:10.792Z,36.60
2017-04-21T10:33:09.692Z,31.60
2017-04-21T10:34:08.976Z,32.80
2017-04-21T10:35:07.503Z,33.43
2017-04-21T10:36:06.412Z,33.15
2017-04-21T10:37:05.472Z,32.27
2017-04-21T10:38:04.413Z,33.40
2017-04-21T10:39:03.849Z,32.17
2017-04-21T10:40:02.748Z,32.83
2017-04-21T10:41:01.736Z,33.77
2017-04-21T10:42:00.326Z,32.78
2017-04-21T10:42:59.848Z,34.07
2017-04-21T10:43:58.357Z,32.65
2017-04-21T10:44:57.279Z,34.33
2017-04-21T10:45:55.787Z,35.43
2017-04-21T10:46:54.707Z,37.05
2017-04-21T10:47:53.629Z,38.17
2017-04-21T10:48:52.919Z,33.38
2017-04-21T10:49:51.542Z,33.97
2017-04-21T10:50:50.478Z,36.68
2017-04-21T10:51:49.396Z,35.38
2017-04-21T10:52:48.304Z,33.98
2017-04-21T10:53:47.222Z,34.78
2017-04-21T10:54:46.095Z,32.75
2017-04-21T10:55:44.615Z,33.65
2017-04-21T10:56:43.528Z,34.17
2017-04-21T10:57:42.452Z,35.65
2017-04-21T10:58:41.375Z,35.17
2017-04-21T10:59:39.940Z,33.45
2017-04-21T11:00:39.135Z,34.83
2017-04-21T11:01:38.411Z,35.08
2017-04-21T11:02:37.345Z,34.13
2017-04-21T11:03:36.317Z,33.48
2017-04-21T11:04:35.216Z,33.35
2017-04-21T11:05:33.712Z,33.88
2017-04-21T11:06:32.876Z,34.18
2017-04-21T11:07:31.804Z,33.82
2017-04-21T11:08:30.792Z,34.62
2017-04-21T11:09:30.055Z,34.50
2017-04-21T11:10:29.020Z,33.07
2017-04-21T11:11:27.957Z,33.70
2017-04-21T11:12:27.267Z,31.48
2017-04-21T11:13:26.172Z,33.25
2017-04-21T11:14:25.165Z,33.88
2017-04-21T11:15:24.082Z,35.08
2017-04-21T11:16:23.498Z,35.48
2017-04-21T11:17:22.696Z,35.60
2017-04-21T11:18:22.087Z,33.22
2017-04-21T11:19:21.004Z,35.22
2017-04-21T11:20:19.506Z,34.07
2017-04-21T11:21:18.403Z,33.53
2017-04-21T11:22:17.712Z,34.57
2017-04-21T11:23:16.225Z,35.13
2017-04-21T11:24:15.403Z,35.43
2017-04-21T11:25:14.728Z,33.28
2017-04-21T11:26:17.036Z,33.82
2017-04-21T11:27:15.971Z,31.47
2017-04-21T11:28:14.784Z,33.55
2017-04-21T11:29:13.729Z,36.37
2017-04-21T11:30:12.862Z,34.72
2017-04-21T11:31:11.772Z,32.33
2017-04-21T11:32:10.784Z,31.92
2017-04-21T11:33:09.695Z,31.80
2017-04-21T11:34:08.617Z,34.33
2017-04-21T11:35:07.536Z,34.02
2017-04-21T11:36:07.988Z,34.27
2017-04-21T11:37:06.871Z,33.65
2017-04-21T11:38:05.811Z,33.13
2017-04-21T11:39:04.452Z,33.35
2017-04-21T11:40:02.955Z,35.30
2017-04-21T11:41:01.863Z,34.17
2017-04-21T11:42:01.456Z,34.75
2017-04-21T11:43:00.376Z,33.57
2017-04-21T11:43:59.302Z,32.62
2017-04-21T11:44:57.969Z,31.62
2017-04-21T11:45:56.887Z,32.05
2017-04-21T11:46:55.400Z,33.03
2017-04-21T11:47:54.381Z,32.30
2017-04-21T11:48:53.289Z,34.17
2017-04-21T11:49:52.195Z,33.53
2017-04-21T11:50:51.073Z,32.50
2017-04-21T11:51:52.081Z,32.38
2017-04-21T11:52:53.741Z,33.40
2017-04-21T11:53:57.368Z,34.57
2017-04-21T11:54:56.386Z,31.53
2017-04-21T11:55:55.983Z,32.88
2017-04-21T11:56:54.968Z,34.70
2017-04-21T11:57:54.980Z,33.08
2017-04-21T11:58:57.071Z,33.83
2017-04-21T11:59:56.480Z,35.53
2017-04-21T12:00:55.436Z,34.18
2017-04-21T12:01:54.704Z,34.35
2017-04-21T12:02:53.624Z,35.13
2017-04-21T12:03:52.564Z,31.83
2017-04-21T12:04:52.197Z,34.42
2017-04-21T12:05:50.747Z,36.68
2017-04-21T12:06:49.681Z,34.90
2017-04-21T12:07:48.579Z,33.78
2017-04-21T12:08:48.346Z,35.58
2017-04-21T12:09:47.285Z,36.00
2017-04-21T12:10:46.475Z,35.87
2017-04-21T12:11:45.383Z,33.73
2017-04-21T12:12:43.886Z,34.00
2017-04-21T12:13:42.788Z,34.97
2017-04-21T12:14:41.697Z,34.13
2017-04-21T12:15:40.822Z,34.05
2017-04-21T12:16:40.037Z,33.15
2017-04-21T12:17:38.927Z,33.15
2017-04-21T12:18:38.112Z,31.78
2017-04-21T12:19:37.004Z,29.98
2017-04-21T12:20:35.918Z,30.93
2017-04-21T12:21:34.872Z,28.93
2017-04-21T12:22:34.096Z,28.02
2017-04-21T12:23:33.008Z,27.20
2017-04-21T12:24:31.929Z,23.93
2017-04-21T12:25:30.856Z,25.07
2017-04-21T12:26:29.773Z,24.75
2017-04-21T12:27:28.676Z,28.55
2017-04-21T12:28:27.982Z,29.60
2017-04-21T12:29:26.889Z,32.32
2017-04-21T12:30:25.928Z,33.20
2017-04-21T12:31:24.854Z,33.40
2017-04-21T12:32:23.769Z,33.58
2017-04-21T12:33:22.760Z,31.88
2017-04-21T12:34:22.080Z,32.60
2017-04-21T12:35:20.608Z,31.23
2017-04-21T12:36:19.167Z,28.02
2017-04-21T12:37:18.076Z,28.20
2017-04-21T12:38:17.005Z,27.63
2017-04-21T12:39:15.963Z,26.70
2017-04-21T12:40:15.349Z,25.07
2017-04-21T12:41:13.964Z,26.90